Time;durP1;ratioP1;P1;durP2;ratioP2;P2;SDS_P1;SDS_P2;PMS_P1;PMS_P2;Temp;Humidity;BMP_temperature;BMP_pressure;BME280_temperature;BME280_humidity;BME280_pressure;Samples;Min_cycle;Max_cycle;Signal;HPM_P1;HPM_P2
2022/11/24 00:01:22;;;;;;;29.85;12.40;;;;;;;-0.95;100.00;98748.39;1719587;82;20985;-73
2022/11/24 00:04:02;;;;;;;24.30;12.33;;;;;;;-0.94;100.00;98742.47;1720213;83;21030;-71
2022/11/24 00:06:29;;;;;;;26.10;11.95;;;;;;;-0.93;100.00;98736.81;1721052;83;20998;-72
2022/11/24 00:08:56;;;;;;;23.57;11.30;;;;;;;-0.93;100.00;98736.00;1702175;82;20947;-71
2022/11/24 00:11:26;;;;;;;29.32;11.03;;;;;;;-0.93;100.00;98746.25;1720168;82;21082;-72
2022/11/24 00:13:53;;;;;;;26.48;12.47;;;;;;;-0.93;100.00;98751.63;1722710;82;21006;-72
2022/11/24 00:16:27;;;;;;;26.73;12.28;;;;;;;-0.92;100.00;98750.56;1721398;83;20977;-73
2022/11/24 00:18:56;;;;;;;27.58;12.63;;;;;;;-0.89;100.00;98743.84;1719276;82;21021;-72
2022/11/24 00:21:23;;;;;;;22.37;10.72;;;;;;;-0.90;100.00;98733.60;1722536;83;21488;-72
2022/11/24 00:23:52;;;;;;;22.05;10.82;;;;;;;-0.92;100.00;98716.88;1723551;83;20943;-72
2022/11/24 00:26:22;;;;;;;20.97;11.12;;;;;;;-0.91;100.00;98715.81;1720849;82;20938;-72
2022/11/24 00:28:51;;;;;;;23.35;11.15;;;;;;;-0.91;100.00;98721.20;1719006;83;21108;-73
2022/11/24 00:31:25;;;;;;;22.00;11.10;;;;;;;-0.92;100.00;98708.80;1722492;83;21038;-72
2022/11/24 00:33:54;;;;;;;23.25;11.28;;;;;;;-0.93;100.00;98703.14;1721169;83;21001;-73
2022/11/24 00:36:24;;;;;;;22.58;10.03;;;;;;;-0.92;100.00;98708.80;1719867;82;21265;-72
2022/11/24 00:38:55;;;;;;;22.30;10.75;;;;;;;-0.92;100.00;98696.67;1719886;83;20973;-72
2022/11/24 00:41:23;;;;;;;22.95;10.90;;;;;;;-0.89;100.00;98685.38;1718998;83;20977;-72
2022/11/24 00:43:51;;;;;;;21.30;10.58;;;;;;;-0.82;100.00;98683.25;1712692;83;21004;-71
2022/11/24 00:46:18;;;;;;;20.15;9.73;;;;;;;-0.80;100.00;98679.77;1694024;83;21578;-72
2022/11/24 00:48:46;;;;;;;19.95;9.50;;;;;;;-0.81;100.00;98667.36;1693836;83;21248;-71
2022/11/24 00:51:14;;;;;;;19.95;9.95;;;;;;;-0.78;100.00;98673.58;1694858;84;20980;-72
2022/11/24 00:53:41;;;;;;;17.10;9.50;;;;;;;-0.77;100.00;98666.30;1694794;84;20984;-72
2022/11/24 00:56:08;;;;;;;17.52;9.63;;;;;;;-0.78;100.00;98666.84;1693918;84;20948;-72
2022/11/24 00:58:36;;;;;;;20.97;10.18;;;;;;;-0.75;100.00;98662.27;1694458;84;21047;-71
2022/11/24 01:01:11;;;;;;;21.85;10.05;;;;;;;-0.75;100.00;98646.09;1691664;84;21250;-72
2022/11/24 01:03:38;;;;;;;19.30;9.60;;;;;;;-0.75;100.00;98646.09;1693704;84;20945;-72
2022/11/24 07:05:29;;;;;;;17.45;8.10;;;;;;;-0.50;100.00;98617.57;1767812;79;26951;-79
2022/11/24 07:07:59;;;;;;;22.73;9.25;;;;;;;-0.53;100.00;98616.22;1729926;80;20987;-79
2022/11/24 07:10:29;;;;;;;20.48;9.60;;;;;;;-0.50;100.00;98614.34;1748540;80;21901;-80
2022/11/24 07:12:55;;;;;;;17.05;7.60;;;;;;;-0.45;100.00;98622.44;1745448;80;20986;-80
2022/11/24 07:15:22;;;;;;;17.40;8.00;;;;;;;-0.42;100.00;98615.70;1743066;80;20974;-81
2022/11/24 07:17:48;;;;;;;16.27;8.05;;;;;;;-0.38;100.00;98621.64;1735387;81;20965;-79
2022/11/24 07:20:15;;;;;;;15.60;7.50;;;;;;;-0.34;100.00;98613.83;1741277;81;20920;-77
2022/11/24 07:22:42;;;;;;;13.78;6.55;;;;;;;-0.28;100.00;98620.05;1741835;81;21103;-81
2022/11/24 07:25:09;;;;;;;15.18;7.62;;;;;;;-0.26;100.00;98617.89;1726789;82;20985;-74
2022/11/24 07:27:36;;;;;;;13.22;6.72;;;;;;;-0.26;100.00;98613.84;1729411;82;20957;-75
2022/11/24 07:30:04;;;;;;;11.95;6.72;;;;;;;-0.24;100.00;98612.50;1718659;81;20875;-73
2022/11/24 07:32:31;;;;;;;12.80;6.65;;;;;;;-0.23;100.00;98615.47;1738157;81;21480;-78
2022/11/24 07:34:58;;;;;;;12.98;6.33;;;;;;;-0.23;100.00;98609.27;1737631;81;21066;-79
2022/11/24 07:37:25;;;;;;;12.40;5.97;;;;;;;-0.22;100.00;98613.58;1751527;81;20917;-82
2022/11/24 07:39:52;;;;;;;12.65;6.30;;;;;;;-0.21;100.00;98616.55;1733112;81;21428;-78
2022/11/24 07:42:18;;;;;;;10.08;4.80;;;;;;;-0.20;100.00;98614.93;1746592;81;20980;-79
2022/11/24 07:44:46;;;;;;;8.73;5.47;;;;;;;-0.18;100.00;98612.78;1742243;81;21032;-82
2022/11/24 07:47:13;;;;;;;11.43;5.67;;;;;;;-0.16;100.00;98620.06;1731959;81;21152;-83
2022/11/24 07:49:41;;;;;;;9.65;5.25;;;;;;;-0.14;100.00;98615.21;1748764;82;21001;-79
2022/11/24 07:52:07;;;;;;;11.88;6.08;;;;;;;-0.10;100.00;98614.13;1737771;81;20980;-81
2022/11/24 07:54:35;;;;;;;10.23;5.35;;;;;;;-0.10;100.00;98618.99;1738717;81;20974;-81
2022/11/24 07:57:02;;;;;;;9.98;5.58;;;;;;;-0.11;100.00;98622.77;1750815;81;21451;-79
2022/11/24 07:59:29;;;;;;;9.83;5.97;;;;;;;-0.11;100.00;98622.77;1744112;80;21082;-81
2022/11/24 08:01:56;;;;;;;11.68;5.85;;;;;;;-0.11;100.00;98622.77;1742776;80;20943;-84
2022/11/24 08:04:24;;;;;;;15.45;7.37;;;;;;;-0.13;100.00;98619.53;1729718;80;20928;-84
2022/11/24 08:06:51;;;;;;;13.72;7.75;;;;;;;-0.13;100.00;98620.87;1756807;80;21418;-80
2022/11/24 08:09:18;;;;;;;10.63;5.40;;;;;;;-0.13;100.00;98626.27;1768756;80;21545;-78
2022/11/24 08:11:45;;;;;;;11.75;6.55;;;;;;;-0.12;100.00;98625.19;1737279;81;21146;-78
2022/11/24 08:14:11;;;;;;;12.58;6.33;;;;;;;-0.11;100.00;98621.95;1748596;81;21493;-74
2022/11/24 08:16:39;;;;;;;11.53;6.10;;;;;;;-0.11;100.00;98621.42;1711456;83;20896;-75
2022/11/24 08:19:06;;;;;;;13.10;6.87;;;;;;;-0.11;100.00;98622.77;1735862;81;20974;-84
2022/11/24 08:21:33;;;;;;;10.43;5.72;;;;;;;-0.12;100.00;98617.10;1747507;80;20884;-81
2022/11/24 08:23:59;;;;;;;21.77;8.98;;;;;;;-0.10;100.00;98616.30;1761055;80;21140;-77
2022/11/24 08:26:26;;;;;;;14.93;7.33;;;;;;;-0.09;100.00;98616.56;1750415;80;20983;-80
2022/11/24 08:28:55;;;;;;;12.00;6.47;;;;;;;-0.07;100.00;98619.80;1762680;80;20995;-75
2022/11/24 08:31:31;;;;;;;21.62;8.88;;;;;;;-0.06;100.00;98622.77;1764964;81;20937;-81
2022/11/24 08:33:55;;;;;;;17.90;9.03;;;;;;;-0.08;100.00;98616.84;1755067;80;20876;-76
2022/11/24 08:36:21;;;;;;;29.80;11.22;;;;;;;-0.09;100.00;98617.91;1762867;80;21772;-81
2022/11/24 08:38:50;;;;;;;27.27;11.73;;;;;;;-0.08;100.00;98614.14;1700545;83;20944;-79
2022/11/24 08:41:17;;;;;;;16.10;8.13;;;;;;;-0.07;100.00;98617.64;1687168;83;20983;-83
2022/11/24 08:43:44;;;;;;;12.43;6.05;;;;;;;-0.05;100.00;98614.14;1697963;83;21047;-84
2022/11/24 08:46:15;;;;;;;8.80;4.65;;;;;;;-0.05;100.00;98612.25;1695030;83;21062;-78
2022/11/24 08:48:43;;;;;;;8.03;4.47;;;;;;;-0.04;100.00;98611.17;1726708;82;21145;-80
2022/11/24 08:51:12;;;;;;;8.93;4.67;;;;;;;-0.05;100.00;98613.59;1701131;83;21057;-76
2022/11/24 08:53:41;;;;;;;8.93;4.55;;;;;;;-0.04;100.00;98606.31;1717385;82;21688;-85
2022/11/24 08:56:08;;;;;;;10.70;5.03;;;;;;;-0.05;100.00;98610.09;1710807;82;20947;-76
2022/11/24 08:58:35;;;;;;;9.85;4.42;;;;;;;-0.05;100.00;98612.25;1695665;83;21088;-79
2022/11/24 09:01:12;;;;;;;8.75;4.75;;;;;;;-0.03;100.00;98610.62;1676204;83;21785;-77
2022/11/24 09:03:39;;;;;;;6.45;3.95;;;;;;;-0.03;100.00;98610.09;1682485;83;21155;-77
2022/11/24 09:06:07;;;;;;;7.35;4.05;;;;;;;-0.01;100.00;98609.28;1696186;83;20967;-75
2022/11/24 09:08:35;;;;;;;11.85;6.00;;;;;;;0.02;100.00;98608.45;1711347;81;20925;-74
2022/11/24 09:11:05;;;;;;;15.25;6.72;;;;;;;0.00;100.00;98601.43;1716770;83;21548;-75
2022/11/24 09:13:33;;;;;;;13.15;5.42;;;;;;;0.02;100.00;98597.66;1687016;83;21152;-76
2022/11/24 09:16:07;;;;;;;10.35;5.35;;;;;;;0.03;100.00;98596.03;1721762;82;21048;-75
2022/11/24 09:18:34;;;;;;;11.25;5.70;;;;;;;0.04;100.00;98594.95;1752164;80;20884;-76
2022/11/24 09:21:12;;;;;;;9.33;5.08;;;;;;;0.06;100.00;98589.28;1748920;80;20988;-76
2022/11/24 09:23:39;;;;;;;10.28;4.60;;;;;;;0.07;100.00;98590.91;1728560;80;20955;-76
2022/11/24 09:26:07;;;;;;;15.38;5.28;;;;;;;0.07;100.00;98585.51;1766935;80;21141;-76
2022/11/24 09:28:36;;;;;;;11.63;4.17;;;;;;;0.08;100.00;98587.12;1761971;80;20980;-75
2022/11/24 09:31:03;;;;;;;10.48;5.08;;;;;;;0.11;100.00;98592.80;1750164;80;20974;-79
2022/11/24 09:33:32;;;;;;;9.28;4.60;;;;;;;0.13;100.00;98585.77;1740937;81;20889;-90
2022/11/24 09:35:58;;;;;;;11.40;5.12;;;;;;;0.13;100.00;98591.98;1744659;80;20983;-77
2022/11/24 09:38:25;;;;;;;7.80;4.47;;;;;;;0.17;100.00;98592.25;1716903;81;21101;-76
2022/11/24 09:40:52;;;;;;;12.33;4.97;;;;;;;0.21;100.00;98598.73;1742665;80;20998;-78
2022/11/24 09:43:34;;;;;;;6.92;3.92;;;;;;;0.23;100.00;98606.02;1751978;80;20931;-78
2022/11/24 09:46:21;;;;;;;9.05;4.83;;;;;;;0.24;100.00;98604.94;1766255;80;21534;-77
2022/11/24 09:48:53;;;;;;;9.53;4.42;;;;;;;0.25;100.00;98603.85;1727514;81;20944;-76
2022/11/24 09:51:23;;;;;;;13.58;5.42;;;;;;;0.28;100.00;98611.41;1744977;80;21164;-75
2022/11/24 09:54:12;;;;;;;11.50;5.75;;;;;;;0.28;100.00;98600.07;1750397;80;21463;-75
2022/11/24 09:56:39;;;;;;;9.13;4.90;;;;;;;0.31;100.00;98601.42;1747356;80;20956;-77
2022/11/24 09:59:15;;;;;;;12.70;5.83;;;;;;;0.31;100.00;98592.78;1742188;80;20967;-85
2022/11/24 10:01:45;;;;;;;13.70;6.12;;;;;;;0.35;100.00;98595.75;1733580;80;21820;-89
2022/11/24 10:04:28;;;;;;;16.85;7.40;;;;;;;0.40;100.00;98598.98;1763931;80;21126;-77
2022/11/24 10:07:32;;;;;;;10.80;5.53;;;;;;;0.41;100.00;98594.66;1754746;80;20864;-81
2022/11/24 10:10:13;;;;;;;9.88;5.05;;;;;;;0.43;100.00;98597.89;1766485;80;21487;-81
2022/11/24 10:13:09;;;;;;;8.78;4.95;;;;;;;0.43;100.00;98605.99;1755183;80;20940;-78
2022/11/24 10:16:18;;;;;;;13.72;6.50;;;;;;;0.43;100.00;98604.64;1759702;80;20957;-76
2022/11/24 10:18:54;;;;;;;25.45;8.83;;;;;;;0.44;100.00;98604.91;1751106;80;21179;-78
2022/11/24 10:21:45;;;;;;;20.35;8.85;;;;;;;0.50;100.00;98607.06;1745997;80;21030;-77
2022/11/24 10:24:33;;;;;;;16.75;6.72;;;;;;;0.52;100.00;98605.71;1756005;80;20896;-78
2022/11/24 10:27:18;;;;;;;17.48;7.87;;;;;;;0.51;100.00;98605.98;1752889;80;21114;-84
2022/11/24 10:29:48;;;;;;;12.18;5.20;;;;;;;0.49;100.00;98608.95;1711533;82;20881;-80
2022/11/24 10:32:36;;;;;;;10.90;5.90;;;;;;;0.51;100.00;98609.49;1733755;82;21211;-83
2022/11/24 10:35:16;;;;;;;10.38;5.80;;;;;;;0.53;100.00;98603.28;1738596;80;20873;-84
2022/11/24 10:37:51;;;;;;;10.18;5.80;;;;;;;0.55;100.00;98605.70;1746298;81;20995;-78
2022/11/24 10:40:35;;;;;;;9.15;5.67;;;;;;;0.54;100.00;98608.95;1736163;81;20983;-79
2022/11/24 10:43:04;;;;;;;8.75;5.42;;;;;;;0.56;100.00;98608.67;1755149;80;21039;-79
2022/11/24 10:45:31;;;;;;;12.47;6.22;;;;;;;0.56;100.00;98610.02;1742763;80;21121;-80
2022/11/24 10:47:58;;;;;;;11.43;6.15;;;;;;;0.59;100.00;98610.80;1761182;80;21012;-78
2022/11/24 10:50:34;;;;;;;12.25;6.95;;;;;;;0.59;100.00;98612.15;1720383;80;20985;-82
2022/11/24 10:53:27;;;;;;;16.30;8.28;;;;;;;0.58;100.00;98607.29;1749021;81;20981;-78
2022/11/24 10:55:58;;;;;;;14.93;8.10;;;;;;;0.58;100.00;98609.19;1747008;80;20896;-73
2022/11/24 10:58:34;;;;;;;18.45;9.10;;;;;;;0.58;100.00;98609.19;1734366;80;21254;-81
2022/11/24 11:01:14;;;;;;;17.90;8.53;;;;;;;0.56;100.00;98610.02;1744297;80;20972;-84
2022/11/24 11:03:52;;;;;;;17.50;8.15;;;;;;;0.53;100.00;98611.38;1705061;82;21040;-77
2022/11/24 11:06:24;;;;;;;16.65;8.20;;;;;;;0.53;100.00;98612.73;1722809;82;20894;-83
2022/11/24 11:09:11;;;;;;;16.87;8.00;;;;;;;0.54;100.00;98617.05;1737007;81;20929;-76
2022/11/24 22:27:13;;;;;;;38.48;18.20;;;;;;;0.00;100.00;98933.33;1843539;77;26286;-76
2022/11/24 22:29:42;;;;;;;36.15;17.62;;;;;;;-0.05;100.00;98943.31;1744387;81;21467;-77
2022/11/24 22:32:08;;;;;;;37.95;21.55;;;;;;;-0.04;100.00;98942.23;1717882;83;21156;-74
2022/11/24 22:34:35;;;;;;;36.77;20.08;;;;;;;0.00;100.00;98942.00;1725968;82;20856;-75
2022/11/24 22:37:04;;;;;;;32.85;18.67;;;;;;;0.08;100.00;98940.66;1705311;83;20989;-75
2022/11/24 22:39:34;;;;;;;;;;;;;;;0.12;100.00;98945.81;1720884;83;20987;-75
2022/11/24 22:42:07;;;;;;;25.68;14.63;;;;;;;0.12;100.00;98937.71;1695291;83;20097;-75
2022/11/24 22:44:36;;;;;;;24.60;13.85;;;;;;;0.13;100.00;98938.80;1715967;83;21092;-75
2022/11/24 22:47:04;;;;;;;18.92;11.50;;;;;;;0.14;100.00;98945.02;1705173;83;21211;-74
2022/11/24 22:49:36;;;;;;;22.93;12.50;;;;;;;0.12;100.00;98941.22;1725942;82;20907;-74
2022/11/24 22:52:08;;;;;;;24.65;13.85;;;;;;;0.12;100.00;98940.41;1714571;83;20868;-74
2022/11/24 22:54:40;;;;;;;23.73;12.55;;;;;;;0.11;100.00;98945.00;1734415;81;20885;-76
2022/11/24 22:57:14;;;;;;;21.33;12.68;;;;;;;0.12;100.00;98949.86;1725592;82;21287;-75
2022/11/24 22:59:42;;;;;;;23.57;13.68;;;;;;;0.16;100.00;98949.61;1722736;82;20971;-75
2022/11/24 23:02:14;;;;;;;27.17;14.90;;;;;;;0.19;100.00;98949.89;1722041;82;21034;-75
2022/11/24 23:04:50;;;;;;;22.90;14.35;;;;;;;0.21;100.00;98953.69;1728687;83;20971;-75
2022/11/24 23:07:21;;;;;;;20.48;12.25;;;;;;;0.25;100.00;98960.19;1726598;82;21558;-75
2022/11/24 23:09:51;;;;;;;20.65;11.73;;;;;;;0.25;100.00;98956.13;1726995;82;21254;-75
2022/11/24 23:12:23;;;;;;;20.15;13.00;;;;;;;0.24;100.00;98958.56;1697111;83;20932;-75
2022/11/24 23:15:03;;;;;;;25.17;12.45;;;;;;;0.26;100.00;98958.57;1720924;83;20939;-75
2022/11/24 23:17:32;;;;;;;23.95;14.10;;;;;;;0.29;100.00;98959.94;1719079;82;20967;-75
2022/11/24 23:20:03;;;;;;;28.80;15.58;;;;;;;0.29;100.00;98959.94;1779087;80;20995;-75
2022/11/24 23:22:33;;;;;;;23.17;14.17;;;;;;;0.32;100.00;98961.57;1774433;80;21467;-75
2022/11/24 23:25:03;;;;;;;24.87;14.40;;;;;;;0.32;100.00;98964.81;1746741;80;21525;-75
2022/11/24 23:27:39;;;;;;;24.05;13.35;;;;;;;0.31;100.00;98960.48;1779514;80;20958;-76
2022/11/24 23:30:10;;;;;;;18.37;11.22;;;;;;;0.30;100.00;98962.38;1776576;80;21407;-75
2022/11/24 23:32:43;;;;;;;29.30;12.77;;;;;;;0.31;100.00;98959.95;1749421;80;20971;-75
2022/11/24 23:35:16;;;;;;;26.77;15.68;;;;;;;0.31;100.00;98964.00;1752261;78;20884;-76
2022/11/24 23:37:51;;;;;;;34.18;18.48;;;;;;;0.35;100.00;98963.47;1756555;80;20839;-76
2022/11/24 23:40:23;;;;;;;27.05;16.07;;;;;;;0.33;100.00;98961.84;1756412;80;20931;-76
2022/11/24 23:43:02;;;;;;;22.85;13.98;;;;;;;0.33;100.00;98965.08;1747423;80;20938;-75
2022/11/24 23:45:33;;;;;;;21.40;12.30;;;;;;;0.33;100.00;98963.73;1740838;81;21426;-75
2022/11/24 23:48:08;;;;;;;21.73;12.75;;;;;;;0.31;100.00;98966.70;1746617;80;20950;-75
2022/11/24 23:50:39;;;;;;;22.45;12.53;;;;;;;0.30;100.00;98969.12;1750835;80;20955;-75
2022/11/24 23:53:11;;;;;;;21.55;13.88;;;;;;;0.32;100.00;98975.61;1727078;81;21425;-75
2022/11/24 23:55:45;;;;;;;23.55;13.32;;;;;;;0.30;100.00;98981.80;1723554;81;20931;-75
2022/11/24 23:58:17;;;;;;;22.73;12.88;;;;;;;0.29;100.00;98986.93;1766675;80;21530;-75
